Time;durP1;ratioP1;P1;durP2;ratioP2;P2;SDS_P1;SDS_P2;PMS_P1;PMS_P2;Temp;Humidity;BMP_temperature;BMP_pressure;BME280_temperature;BME280_humidity;BME280_pressure;Samples;Min_cycle;Max_cycle;Signal;HPM_P1;HPM_P2
2021/12/02 00:00:49;;;;;;;5.00;1.10;;;12.80;99.90;;;;;;4978699;28;20075;-66
2021/12/02 00:03:15;;;;;;;8.50;1.80;;;12.90;99.90;;;;;;4975255;28;20050;-66
2021/12/02 00:05:41;;;;;;;3.47;1.23;;;;;;;;;;4977874;28;20047;-64
2021/12/02 00:08:07;;;;;;;4.97;0.90;;;12.90;99.90;;;;;;4993271;28;20040;-66
2021/12/02 00:10:41;;;;;;;6.03;1.20;;;12.90;99.90;;;;;;4958988;28;20488;-63
2021/12/02 00:13:14;;;;;;;5.45;1.20;;;13.00;99.90;;;;;;4944010;28;20086;-64
2021/12/02 00:21:50;;;;;;;2.90;0.90;;;12.90;99.90;;;;;;4884788;29;20071;-63
2021/12/02 00:24:26;;;;;;;2.72;1.00;;;12.50;99.90;;;;;;4916388;29;20131;-65
2021/12/02 00:26:55;;;;;;;5.53;1.15;;;12.90;99.90;;;;;;4904789;29;20561;-65
2021/12/02 00:29:22;;;;;;;4.20;1.10;;;13.10;99.90;;;;;;4919851;29;20067;-65
2021/12/02 00:31:49;;;;;;;4.50;1.08;;;12.90;99.90;;;;;;4919367;29;20083;-65
2021/12/02 00:34:15;;;;;;;3.78;1.20;;;12.90;99.90;;;;;;4919205;29;20135;-65
2021/12/02 00:36:41;;;;;;;2.88;0.80;;;12.70;99.90;;;;;;4919273;29;20127;-65
2021/12/02 00:39:12;;;;;;;6.97;1.20;;;12.80;99.90;;;;;;4921802;29;20076;-67
2021/12/02 00:41:38;;;;;;;6.40;1.20;;;12.70;99.90;;;;;;4916602;29;20091;-64
2021/12/02 00:44:04;;;;;;;5.22;0.95;;;12.70;99.90;;;;;;4924058;29;20139;-65
2021/12/02 00:46:34;;;;;;;4.07;0.88;;;12.90;99.90;;;;;;4918402;29;20073;-65
2021/12/02 00:49:03;;;;;;;5.63;1.17;;;12.70;99.90;;;;;;4900715;29;20052;-66
2021/12/02 00:51:31;;;;;;;5.40;1.30;;;12.60;99.90;;;;;;4900852;29;20056;-64
2021/12/02 00:54:00;;;;;;;7.97;1.30;;;12.70;99.90;;;;;;4917191;29;20561;-65
2021/12/02 00:56:26;;;;;;;7.10;1.08;;;12.70;99.90;;;;;;4955321;29;20063;-66
2021/12/02 00:58:53;;;;;;;3.53;1.02;;;12.50;99.90;;;;;;4939400;29;20051;-65
2021/12/02 01:01:20;;;;;;;5.60;1.02;;;12.40;99.90;;;;;;4924952;29;20062;-66
2021/12/02 01:03:48;;;;;;;5.38;1.13;;;12.60;99.90;;;;;;4922618;29;20047;-64
2021/12/02 01:06:14;;;;;;;4.38;1.27;;;12.50;99.90;;;;;;4925595;29;20496;-64
2021/12/02 01:08:40;;;;;;;6.20;1.40;;;12.60;99.90;;;;;;4931350;29;20047;-64
2021/12/02 01:11:08;;;;;;;6.05;1.50;;;12.70;99.90;;;;;;4956888;29;20141;-66
2021/12/02 01:13:33;;;;;;;4.78;1.10;;;12.70;99.90;;;;;;4955165;28;20502;-67
2021/12/02 01:15:59;;;;;;;5.25;1.10;;;12.60;99.90;;;;;;4947960;28;20326;-65
2021/12/02 01:18:25;;;;;;;4.10;0.95;;;12.50;99.90;;;;;;4937047;29;20083;-66
2021/12/02 01:20:52;;;;;;;3.28;1.02;;;12.50;99.90;;;;;;4938846;29;20058;-64
2021/12/02 01:23:18;;;;;;;6.03;1.08;;;12.60;99.90;;;;;;4935559;29;20046;-66
2021/12/02 01:25:53;;;;;;;7.68;1.05;;;12.50;99.90;;;;;;4954816;29;20079;-66
2021/12/02 01:28:20;;;;;;;3.97;0.82;;;12.80;99.90;;;;;;4966810;28;20047;-65
2021/12/02 01:30:45;;;;;;;4.78;1.30;;;12.50;99.90;;;;;;4955172;28;20070;-64
2021/12/02 01:33:11;;;;;;;4.63;1.45;;;12.40;99.90;;;;;;4944200;29;20039;-65
2021/12/02 01:35:37;;;;;;;5.47;1.20;;;12.50;99.90;;;;;;4938952;29;20481;-64
2021/12/02 01:38:03;;;;;;;4.70;0.80;;;;;;;;;;4947394;29;20051;-64
2021/12/02 01:40:29;;;;;;;3.63;1.20;;;12.70;99.90;;;;;;4936667;29;20387;-64
2021/12/02 01:42:57;;;;;;;8.45;2.13;;;12.30;99.90;;;;;;4954193;29;20053;-64
2021/12/02 01:45:27;;;;;;;4.95;1.00;;;12.40;99.90;;;;;;4953334;29;20493;-64
2021/12/02 01:47:54;;;;;;;5.50;1.10;;;12.30;99.90;;;;;;4969989;28;20078;-64
2021/12/02 01:50:22;;;;;;;6.15;1.75;;;12.50;99.90;;;;;;4957348;28;20054;-66
2021/12/02 01:52:58;;;;;;;4.75;0.90;;;12.40;99.90;;;;;;4942064;28;20055;-66
2021/12/02 01:55:25;;;;;;;5.25;0.90;;;12.80;99.90;;;;;;4965400;28;20053;-64
2021/12/02 01:57:59;;;;;;;4.50;1.00;;;12.40;99.90;;;;;;4976636;28;20049;-64
2021/12/02 02:00:27;;;;;;;3.53;0.88;;;12.50;99.90;;;;;;4957389;28;20460;-65
2021/12/02 02:02:53;;;;;;;7.05;1.25;;;12.30;99.90;;;;;;4975879;28;20146;-67
2021/12/02 02:05:19;;;;;;;4.57;1.00;;;12.50;99.90;;;;;;4973416;28;20059;-64
2021/12/02 02:08:01;;;;;;;2.65;0.90;;;12.40;99.90;;;;;;4983613;28;20038;-64
2021/12/02 02:10:28;;;;;;;6.05;0.95;;;12.50;99.90;;;;;;4960588;28;20064;-65
2021/12/02 02:12:58;;;;;;;3.30;0.90;;;12.70;99.90;;;;;;4976366;28;20049;-64
2021/12/02 02:15:24;;;;;;;4.20;0.88;;;12.30;99.90;;;;;;4977132;28;20085;-66
2021/12/02 02:17:57;;;;;;;3.05;0.80;;;;;;;;;;4976261;28;20446;-66
2021/12/02 02:20:25;;;;;;;3.17;0.90;;;12.60;99.90;;;;;;4944554;28;20062;-63
2021/12/02 02:22:51;;;;;;;4.13;0.95;;;12.40;99.90;;;;;;4988698;28;20047;-65
2021/12/02 02:25:18;;;;;;;4.18;0.90;;;12.60;99.90;;;;;;4976130;28;20178;-63
2021/12/02 02:27:45;;;;;;;6.05;1.00;;;12.40;99.90;;;;;;4960804;28;20054;-64
2021/12/02 02:30:11;;;;;;;3.75;1.00;;;12.60;99.90;;;;;;4959019;28;20058;-64
2021/12/02 02:32:37;;;;;;;3.25;0.90;;;12.60;99.90;;;;;;4974296;28;20039;-65
2021/12/02 02:35:05;;;;;;;3.13;0.85;;;12.50;99.90;;;;;;4956876;28;20126;-70
2021/12/02 02:37:34;;;;;;;3.47;0.77;;;12.70;99.90;;;;;;4959840;28;20077;-64
2021/12/02 02:40:02;;;;;;;2.92;1.02;;;12.60;99.90;;;;;;4976436;28;20458;-65
2021/12/02 02:42:28;;;;;;;4.15;1.10;;;12.40;99.90;;;;;;4975172;28;20522;-66
2021/12/02 02:44:54;;;;;;;4.13;0.80;;;12.60;99.90;;;;;;4975940;28;20081;-66
2021/12/02 02:47:24;;;;;;;6.03;1.25;;;12.50;99.90;;;;;;4976012;28;20475;-65
2021/12/02 02:49:49;;;;;;;2.72;0.70;;;12.40;99.90;;;;;;4952826;29;20091;-65
2021/12/02 02:52:15;;;;;;;4.20;1.08;;;12.40;99.90;;;;;;4954624;28;20094;-65
2021/12/02 02:54:41;;;;;;;3.85;0.98;;;12.30;99.90;;;;;;4955483;28;20044;-64
2021/12/02 02:57:10;;;;;;;3.30;0.80;;;12.40;99.90;;;;;;4953632;29;20074;-64
2021/12/02 03:08:13;;;;;;;4.07;0.90;;;12.30;99.90;;;;;;4915902;29;20576;-66
2021/12/02 03:13:19;;;;;;;5.43;1.08;;;12.30;99.90;;;;;;4957022;28;20458;-66
2021/12/02 03:18:30;;;;;;;3.90;0.73;;;12.40;99.90;;;;;;4957352;29;20445;-64
2021/12/02 03:20:56;;;;;;;2.85;0.77;;;12.30;99.90;;;;;;4958487;29;20131;-66
2021/12/02 03:23:23;;;;;;;2.70;0.80;;;12.20;99.90;;;;;;4957837;28;20130;-66
2021/12/02 03:25:49;;;;;;;2.58;0.70;;;;;;;;;;4941085;29;20066;-65
2021/12/02 03:28:15;;;;;;;1.90;0.68;;;12.20;99.90;;;;;;4958301;29;20409;-65
2021/12/02 03:30:41;;;;;;;6.00;0.95;;;12.30;99.90;;;;;;4941022;29;20047;-66
2021/12/02 03:33:06;;;;;;;3.13;0.68;;;12.30;99.90;;;;;;4955794;29;20047;-66
2021/12/02 03:35:32;;;;;;;2.45;0.52;;;;;;;;;;4956547;28;20059;-65
2021/12/02 03:37:58;;;;;;;2.22;0.73;;;12.20;99.90;;;;;;4957119;29;20082;-65
2021/12/02 03:40:24;;;;;;;4.50;0.60;;;12.30;99.90;;;;;;4943990;29;20090;-65
2021/12/02 03:42:53;;;;;;;4.85;0.82;;;12.40;99.90;;;;;;4957722;29;20449;-65
2021/12/02 03:45:21;;;;;;;2.40;0.55;;;12.40;99.90;;;;;;4949943;29;20050;-65
2021/12/02 03:47:47;;;;;;;3.40;0.90;;;12.30;99.90;;;;;;4957952;28;20043;-65
2021/12/02 03:50:13;;;;;;;3.17;0.73;;;12.20;99.90;;;;;;4976346;28;20417;-65
2021/12/02 03:52:39;;;;;;;2.15;0.73;;;12.60;99.90;;;;;;4993253;28;20562;-65
2021/12/02 03:55:05;;;;;;;3.20;0.65;;;12.20;99.90;;;;;;4978559;28;20077;-66
2021/12/02 03:57:32;;;;;;;3.55;0.65;;;12.10;99.90;;;;;;4962915;28;20042;-66
2021/12/02 03:59:58;;;;;;;1.90;0.65;;;12.10;99.90;;;;;;4996452;28;20097;-64
2021/12/02 04:02:24;;;;;;;3.05;0.52;;;12.10;99.90;;;;;;4996205;28;20053;-64
2021/12/02 04:04:50;;;;;;;1.30;0.40;;;12.00;99.90;;;;;;4976125;28;20416;-64
2021/12/02 04:07:18;;;;;;;2.95;0.77;;;12.00;99.90;;;;;;4978711;28;20057;-66
2021/12/02 04:09:45;;;;;;;2.65;0.60;;;12.20;99.90;;;;;;4962976;28;20173;-67
2021/12/02 04:12:20;;;;;;;2.35;0.52;;;12.20;99.90;;;;;;4995407;28;20484;-64
2021/12/02 04:15:05;;;;;;;1.83;0.50;;;12.30;99.90;;;;;;4978606;28;20128;-65
2021/12/02 04:17:43;;;;;;;4.22;0.52;;;;;;;;;;4977985;28;20085;-66
2021/12/02 04:20:20;;;;;;;1.92;0.50;;;12.20;99.90;;;;;;4978199;28;20050;-64
2021/12/02 04:22:46;;;;;;;2.22;0.57;;;11.90;99.90;;;;;;4995895;28;20116;-65
2021/12/02 04:25:12;;;;;;;1.15;0.35;;;12.00;99.90;;;;;;4978653;28;20393;-65
2021/12/02 04:27:39;;;;;;;1.10;0.38;;;11.90;99.90;;;;;;4977671;28;20054;-65
2021/12/02 04:30:06;;;;;;;2.53;0.63;;;12.00;99.90;;;;;;4962284;28;20399;-65
2021/12/02 04:32:32;;;;;;;0.63;0.17;;;12.10;99.90;;;;;;4995106;28;20046;-68
2021/12/02 04:34:58;;;;;;;2.53;0.45;;;12.20;99.90;;;;;;4958816;28;20058;-65
2021/12/02 04:37:24;;;;;;;2.40;0.60;;;12.20;99.90;;;;;;4958970;28;20043;-65
2021/12/02 04:39:49;;;;;;;2.30;0.55;;;12.00;99.90;;;;;;4994813;28;20046;-65
2021/12/02 04:42:15;;;;;;;2.30;0.43;;;12.00;99.90;;;;;;4977826;28;20117;-68
2021/12/02 04:44:41;;;;;;;1.48;0.30;;;12.20;99.90;;;;;;4958252;28;20476;-65
2021/12/02 04:47:06;;;;;;;1.73;0.38;;;12.00;99.90;;;;;;4957909;28;20042;-66
2021/12/02 04:49:32;;;;;;;2.65;0.50;;;12.00;99.90;;;;;;4974675;28;20050;-66
2021/12/02 04:52:04;;;;;;;3.03;0.57;;;12.00;99.90;;;;;;4977256;28;20046;-65
2021/12/02 04:54:30;;;;;;;2.90;0.57;;;12.00;99.90;;;;;;4961605;28;20046;-64
2021/12/02 04:56:56;;;;;;;1.30;0.38;;;;;;;;;;4995290;28;20038;-65
2021/12/02 04:59:22;;;;;;;2.45;0.60;;;12.10;99.90;;;;;;4994308;28;20428;-64
2021/12/02 05:01:48;;;;;;;3.00;0.52;;;12.00;99.90;;;;;;4961581;28;20133;-67
2021/12/02 05:04:13;;;;;;;2.40;0.38;;;12.20;99.90;;;;;;4994533;28;20034;-67
2021/12/02 05:06:39;;;;;;;1.90;0.40;;;12.10;99.90;;;;;;4994721;28;20042;-65
2021/12/02 05:09:05;;;;;;;0.95;0.28;;;11.70;99.90;;;;;;4942550;28;20050;-67
2021/12/02 05:11:31;;;;;;;1.15;0.40;;;12.00;99.90;;;;;;4976923;28;20077;-65
2021/12/02 05:13:56;;;;;;;2.50;0.52;;;12.00;99.90;;;;;;4976853;28;20121;-65
2021/12/02 05:16:22;;;;;;;1.58;0.30;;;12.20;99.90;;;;;;4977596;28;20042;-65
2021/12/02 05:18:48;;;;;;;1.25;0.30;;;12.00;99.90;;;;;;4977523;28;20057;-64
2021/12/02 05:21:14;;;;;;;1.38;0.45;;;12.10;99.90;;;;;;4974039;28;20133;-68
2021/12/02 05:23:39;;;;;;;1.08;0.20;;;12.00;99.90;;;;;;4974655;28;20078;-65
2021/12/02 05:26:05;;;;;;;1.75;0.35;;;12.10;99.90;;;;;;4977224;28;20046;-65
2021/12/02 05:28:31;;;;;;;2.70;0.60;;;12.20;99.90;;;;;;4977565;28;20054;-65
2021/12/02 05:30:57;;;;;;;2.00;0.77;;;12.00;99.90;;;;;;4977144;28;20058;-65
2021/12/02 05:33:22;;;;;;;0.77;0.30;;;12.00;99.90;;;;;;4976332;28;20136;-64
2021/12/02 05:35:48;;;;;;;1.20;0.38;;;12.00;99.90;;;;;;4976721;28;20126;-65
2021/12/02 05:38:14;;;;;;;1.42;0.30;;;12.00;99.90;;;;;;4976878;28;20034;-64
2021/12/02 05:40:40;;;;;;;1.35;0.30;;;12.00;99.90;;;;;;4976449;28;20519;-64
2021/12/02 05:43:06;;;;;;;0.82;0.43;;;12.10;99.90;;;;;;4976443;28;20046;-69
2021/12/02 05:45:32;;;;;;;1.67;0.55;;;;;;;;;;4956979;28;20050;-64
2021/12/02 05:47:58;;;;;;;2.45;0.32;;;11.80;99.90;;;;;;4975640;28;20046;-65
2021/12/02 05:50:24;;;;;;;1.15;0.50;;;12.10;99.90;;;;;;4957690;28;20043;-68
2021/12/02 05:52:50;;;;;;;1.20;0.30;;;11.90;99.90;;;;;;4957727;28;20047;-65
2021/12/02 05:55:16;;;;;;;3.45;0.50;;;11.90;99.90;;;;;;4986111;28;20050;-64
2021/12/02 05:57:41;;;;;;;2.33;0.40;;;11.70;99.90;;;;;;4975116;28;20050;-65
2021/12/02 06:00:08;;;;;;;1.33;0.30;;;;;;;;;;4976639;28;20203;-66
2021/12/02 06:02:36;;;;;;;0.65;0.10;;;11.90;99.90;;;;;;4960556;28;20050;-65
2021/12/02 06:05:03;;;;;;;1.30;0.25;;;11.80;99.80;;;;;;4959998;28;20081;-64
2021/12/02 06:07:29;;;;;;;2.47;0.40;;;12.00;99.90;;;;;;4993732;28;20438;-64
2021/12/02 06:09:55;;;;;;;1.45;0.45;;;11.80;99.90;;;;;;4977176;28;20125;-67
2021/12/02 06:12:20;;;;;;;2.00;0.30;;;12.10;99.90;;;;;;4941420;28;20488;-64
2021/12/02 06:14:46;;;;;;;0.98;0.40;;;11.70;99.90;;;;;;4974569;28;20587;-63
2021/12/02 06:17:12;;;;;;;0.95;0.20;;;12.00;99.90;;;;;;4975034;28;20074;-64
2021/12/02 06:19:38;;;;;;;2.22;0.35;;;11.80;99.90;;;;;;4974493;28;20054;-64
2021/12/02 06:22:03;;;;;;;0.52;0.20;;;11.80;99.60;;;;;;4976604;28;20391;-69
2021/12/02 06:24:43;;;;;;;1.75;0.43;;;;;;;;;;4994324;28;20053;-64
2021/12/02 06:27:09;;;;;;;1.60;0.40;;;11.90;99.50;;;;;;4976771;28;20046;-66
2021/12/02 06:29:35;;;;;;;1.08;0.45;;;11.60;98.90;;;;;;4993568;28;20511;-66
2021/12/02 06:32:03;;;;;;;2.50;0.40;;;11.80;99.90;;;;;;4993486;28;20077;-65
2021/12/02 06:34:32;;;;;;;1.90;0.30;;;11.90;99.90;;;;;;4958310;28;20061;-68
2021/12/02 06:36:58;;;;;;;1.35;0.40;;;11.90;99.90;;;;;;4997646;28;20043;-64
2021/12/02 06:39:24;;;;;;;0.40;0.30;;;11.80;99.90;;;;;;4976918;28;20047;-66
2021/12/02 06:41:49;;;;;;;2.15;0.20;;;12.00;99.90;;;;;;4987731;28;20369;-65
2021/12/02 06:44:16;;;;;;;2.15;0.38;;;;;;;;;;4979808;28;20551;-65
2021/12/02 06:46:41;;;;;;;0.32;0.20;;;11.80;99.50;;;;;;4980112;28;20078;-66
2021/12/02 06:49:08;;;;;;;0.55;0.35;;;;;;;;;;4979096;28;20105;-66
2021/12/02 06:51:33;;;;;;;1.55;0.25;;;11.90;99.90;;;;;;4979376;28;20046;-67
2021/12/02 06:53:59;;;;;;;1.77;0.40;;;11.80;99.90;;;;;;4960855;28;20047;-69
2021/12/02 06:56:25;;;;;;;2.80;0.50;;;;;;;;;;4986246;28;20038;-65
2021/12/02 06:58:51;;;;;;;2.35;0.80;;;12.00;99.40;;;;;;4996289;28;20464;-64
2021/12/02 07:01:17;;;;;;;2.78;0.38;;;;;;;;;;4979658;28;20234;-66
2021/12/02 07:03:43;;;;;;;2.85;0.50;;;11.60;99.30;;;;;;4997348;28;20446;-67
2021/12/02 07:06:09;;;;;;;1.95;0.80;;;;;;;;;;4979739;28;20046;-66
2021/12/02 07:08:35;;;;;;;1.15;0.30;;;;;;;;;;4979682;28;20396;-69
2021/12/02 07:11:05;;;;;;;1.92;0.40;;;11.70;99.90;;;;;;4968599;28;20050;-67
2021/12/02 07:13:30;;;;;;;1.20;0.52;;;11.80;99.90;;;;;;4963964;28;20053;-64
2021/12/02 07:15:58;;;;;;;1.15;0.47;;;11.50;99.90;;;;;;4976431;28;20043;-69
2021/12/02 07:18:25;;;;;;;2.50;0.40;;;11.50;99.90;;;;;;4978980;28;20073;-64
2021/12/02 07:20:51;;;;;;;1.30;0.30;;;11.80;99.90;;;;;;4979830;28;20399;-65
2021/12/02 07:23:19;;;;;;;1.17;0.52;;;11.80;99.90;;;;;;4976633;28;20043;-65
2021/12/02 07:25:45;;;;;;;2.15;0.52;;;11.80;99.90;;;;;;4978675;28;20492;-67
2021/12/02 07:28:12;;;;;;;1.02;0.32;;;11.80;98.80;;;;;;4963592;28;20108;-67
2021/12/02 07:30:38;;;;;;;2.13;0.50;;;;;;;;;;4958975;28;20049;-68
2021/12/02 07:33:04;;;;;;;2.38;0.50;;;11.70;99.90;;;;;;4970029;28;20089;-67
2021/12/02 07:35:30;;;;;;;1.25;0.50;;;11.80;99.90;;;;;;4976242;28;20520;-64
2021/12/02 07:37:57;;;;;;;1.58;0.70;;;11.50;99.00;;;;;;4978903;28;20480;-64
2021/12/02 07:40:24;;;;;;;2.00;0.50;;;;;;;;;;4979491;28;20054;-66
2021/12/02 07:42:54;;;;;;;1.92;0.75;;;11.70;99.10;;;;;;4978821;28;20046;-65
2021/12/02 07:45:24;;;;;;;1.63;0.70;;;11.50;99.00;;;;;;4977823;28;20061;-65
2021/12/02 07:47:50;;;;;;;2.10;0.88;;;11.80;99.90;;;;;;4943460;28;20098;-65
2021/12/02 07:50:16;;;;;;;2.00;0.60;;;11.90;99.90;;;;;;4950473;28;20051;-64
2021/12/02 07:53:01;;;;;;;1.80;0.50;;;11.50;99.10;;;;;;4996471;28;20113;-65
2021/12/02 07:55:28;;;;;;;1.83;0.60;;;11.70;99.90;;;;;;4996722;28;20069;-67
2021/12/02 07:57:54;;;;;;;1.60;0.68;;;11.60;98.90;;;;;;4979505;28;20046;-64
2021/12/02 08:00:21;;;;;;;2.40;0.70;;;11.80;99.90;;;;;;4996633;28;20483;-63
2021/12/02 08:02:49;;;;;;;1.52;0.68;;;11.50;98.90;;;;;;4959002;28;20567;-64
2021/12/02 08:05:15;;;;;;;0.98;0.50;;;11.70;99.90;;;;;;4976173;28;20074;-64
2021/12/02 08:07:41;;;;;;;1.98;1.08;;;11.70;99.90;;;;;;4975622;28;20461;-64
2021/12/02 08:10:08;;;;;;;1.00;0.60;;;11.80;99.90;;;;;;4975517;28;20090;-63
2021/12/02 08:12:34;;;;;;;4.45;1.00;;;11.30;99.90;;;;;;4983226;28;20052;-70
2021/12/02 08:15:02;;;;;;;1.30;0.60;;;11.60;99.90;;;;;;4979092;28;20093;-64
2021/12/02 08:17:28;;;;;;;2.10;0.68;;;11.60;99.90;;;;;;4979180;28;20050;-68
2021/12/02 08:19:54;;;;;;;1.70;0.65;;;11.80;99.90;;;;;;4978848;28;20092;-67
2021/12/02 08:22:19;;;;;;;1.55;0.70;;;11.60;99.90;;;;;;4996297;28;20485;-66
2021/12/02 08:24:45;;;;;;;1.42;0.60;;;11.60;99.80;;;;;;4995763;28;20046;-66
2021/12/02 08:27:11;;;;;;;1.15;0.50;;;;;;;;;;4978227;28;20050;-66
2021/12/02 08:29:37;;;;;;;1.90;0.70;;;11.60;99.80;;;;;;4996763;28;20054;-64
2021/12/02 08:32:03;;;;;;;1.15;0.70;;;;;;;;;;4977837;28;20039;-66
2021/12/02 08:34:29;;;;;;;1.25;0.43;;;11.70;99.80;;;;;;4978625;28;20057;-66
2021/12/02 08:36:56;;;;;;;2.53;0.77;;;;;;;;;;4977958;28;20447;-66
2021/12/02 08:39:25;;;;;;;3.55;1.00;;;;;;;;;;4977677;28;20053;-67
2021/12/02 08:41:54;;;;;;;3.13;0.80;;;;;;;;;;4978111;28;20137;-68
2021/12/02 08:44:19;;;;;;;2.05;0.65;;;11.40;99.60;;;;;;4995796;28;20074;-67
2021/12/02 08:46:47;;;;;;;2.63;0.85;;;11.70;99.70;;;;;;4977865;28;20443;-64
2021/12/02 08:49:13;;;;;;;2.53;0.95;;;11.60;99.60;;;;;;4974606;28;20126;-65
2021/12/02 08:51:39;;;;;;;1.33;0.80;;;11.80;99.60;;;;;;4961973;28;20134;-69
2021/12/02 08:54:05;;;;;;;2.28;0.73;;;;;;;;;;4968796;28;20129;-68
2021/12/02 08:56:31;;;;;;;1.90;0.75;;;;;;;;;;4975913;28;20058;-68
2021/12/02 08:58:59;;;;;;;4.50;1.10;;;;;;;;;;4958568;28;20498;-67
2021/12/02 09:01:25;;;;;;;3.25;0.80;;;;;;;;;;4974716;28;20055;-67
2021/12/02 09:03:51;;;;;;;2.55;0.70;;;11.70;99.70;;;;;;4974563;28;20046;-68
2021/12/02 09:06:22;;;;;;;2.95;0.90;;;11.80;99.70;;;;;;4971273;28;20378;-66
2021/12/02 09:08:48;;;;;;;2.97;0.70;;;;;;;;;;4955850;29;20055;-67
2021/12/02 09:11:14;;;;;;;10.35;1.02;;;12.10;99.70;;;;;;4955011;29;20497;-66
2021/12/02 09:13:39;;;;;;;1.17;0.80;;;11.80;99.60;;;;;;4956283;29;20146;-66
2021/12/02 09:16:06;;;;;;;1.45;0.52;;;;;;;;;;4954753;29;20059;-67
2021/12/02 09:18:32;;;;;;;3.28;0.95;;;;;;;;;;4938983;29;20051;-66
2021/12/02 09:20:58;;;;;;;2.45;0.60;;;;;;;;;;4954901;29;20055;-70
2021/12/02 09:23:25;;;;;;;2.58;1.05;;;;;;;;;;4939368;29;20085;-66
2021/12/02 09:25:51;;;;;;;3.15;0.60;;;12.20;99.70;;;;;;4955648;28;20058;-66
2021/12/02 09:28:17;;;;;;;1.45;0.70;;;;;;;;;;4975422;28;20484;-66
2021/12/02 09:30:43;;;;;;;0.95;0.60;;;12.10;99.70;;;;;;4975526;28;20047;-66
2021/12/02 09:33:09;;;;;;;1.55;0.63;;;12.00;99.60;;;;;;4973825;28;20062;-68
2021/12/02 09:35:35;;;;;;;2.42;0.65;;;12.10;99.60;;;;;;4973811;28;20085;-66
2021/12/02 09:38:01;;;;;;;2.42;1.05;;;;;;;;;;4975204;28;20057;-67
2021/12/02 09:40:27;;;;;;;1.52;0.50;;;12.10;99.50;;;;;;4989981;28;20093;-68
2021/12/02 09:42:53;;;;;;;1.35;0.45;;;;;;;;;;4965163;28;20082;-71
2021/12/02 09:45:19;;;;;;;1.73;0.75;;;;;;;;;;4935139;29;20043;-68
2021/12/02 09:47:47;;;;;;;2.03;0.80;;;12.20;98.30;;;;;;4919723;29;20425;-68
2021/12/02 09:50:28;;;;;;;1.27;0.50;;;12.10;99.70;;;;;;4933125;29;20421;-66
2021/12/02 09:52:59;;;;;;;3.30;0.60;;;12.00;99.60;;;;;;4952545;29;20094;-67
2021/12/02 09:55:43;;;;;;;3.33;0.55;;;;;;;;;;4954486;29;20054;-67
2021/12/02 09:58:17;;;;;;;2.08;0.70;;;;;;;;;;4954301;29;20051;-68
2021/12/02 10:01:08;;;;;;;1.33;0.45;;;11.90;99.30;;;;;;4954201;29;20509;-67
2021/12/02 10:03:32;;;;;;;1.45;0.57;;;;;;;;;;4964538;28;20155;-69
2021/12/02 10:06:04;;;;;;;1.95;0.50;;;11.90;97.40;;;;;;4968685;28;20047;-67
2021/12/02 10:08:35;;;;;;;1.83;0.60;;;11.80;98.00;;;;;;4935738;28;20138;-65
2021/12/02 10:11:06;;;;;;;1.92;0.38;;;11.80;98.10;;;;;;4938525;29;20132;-64
2021/12/02 10:13:49;;;;;;;1.65;0.63;;;11.80;99.40;;;;;;4955622;29;20504;-64
2021/12/02 10:16:27;;;;;;;1.67;0.57;;;11.80;99.30;;;;;;4955240;28;20543;-64
2021/12/02 10:19:00;;;;;;;2.25;0.60;;;11.60;98.10;;;;;;4954407;28;20043;-65
2021/12/02 10:21:55;;;;;;;1.08;0.40;;;11.40;99.20;;;;;;4953966;29;20052;-65
2021/12/02 10:24:23;;;;;;;1.20;0.40;;;11.80;97.40;;;;;;4953749;29;20059;-64
2021/12/02 10:27:07;;;;;;;1.88;0.30;;;11.80;98.20;;;;;;4953913;29;20086;-64
2021/12/02 10:29:34;;;;;;;1.35;0.40;;;11.70;99.20;;;;;;4944458;29;20043;-64
2021/12/02 10:32:25;;;;;;;1.05;0.32;;;;;;;;;;4938887;29;20043;-64
2021/12/02 10:34:58;;;;;;;1.63;0.50;;;11.60;99.20;;;;;;4894312;29;20060;-70
2021/12/02 10:37:34;;;;;;;1.20;0.28;;;11.60;97.40;;;;;;4900060;29;20426;-65
2021/12/02 10:40:14;;;;;;;1.50;0.20;;;11.70;99.20;;;;;;4883412;29;20141;-66
2021/12/02 10:42:42;;;;;;;1.25;0.50;;;11.70;99.20;;;;;;4898946;29;20063;-65
2021/12/02 10:45:23;;;;;;;0.75;0.20;;;11.80;99.20;;;;;;4900862;29;20093;-64
2021/12/02 10:47:50;;;;;;;2.17;0.60;;;11.70;97.80;;;;;;4899104;29;20048;-64
2021/12/02 10:50:16;;;;;;;1.40;0.20;;;;;;;;;;4932460;29;20091;-64
2021/12/02 10:52:42;;;;;;;1.85;0.40;;;;;;;;;;4936764;29;20066;-69
2021/12/02 10:55:10;;;;;;;1.70;0.30;;;11.90;98.60;;;;;;4936774;29;20409;-64
2021/12/02 10:57:49;;;;;;;1.70;0.70;;;11.90;97.70;;;;;;4951821;29;20055;-69
2021/12/02 11:00:17;;;;;;;3.25;0.40;;;11.80;98.80;;;;;;4936703;29;20051;-65
2021/12/02 11:02:52;;;;;;;1.23;0.30;;;11.80;97.70;;;;;;4905504;29;20114;-64
2021/12/02 11:05:30;;;;;;;0.77;0.25;;;11.70;98.80;;;;;;4938210;29;20428;-64
2021/12/02 11:08:02;;;;;;;0.98;0.40;;;11.50;96.90;;;;;;4952499;29;20051;-63
2021/12/02 11:10:41;;;;;;;0.77;0.20;;;11.70;98.90;;;;;;4937415;29;20051;-64
2021/12/02 11:13:08;;;;;;;0.88;0.30;;;;;;;;;;4958221;28;20130;-64
2021/12/02 11:15:35;;;;;;;0.95;0.38;;;11.50;98.90;;;;;;4968987;28;20450;-65
2021/12/02 11:18:03;;;;;;;0.60;0.10;;;11.70;97.80;;;;;;4965540;28;20055;-66
2021/12/02 11:20:36;;;;;;;2.45;0.35;;;11.50;98.90;;;;;;4974908;28;20122;-63
2021/12/02 11:23:28;;;;;;;0.68;0.10;;;11.70;97.90;;;;;;4975846;28;20137;-64
2021/12/02 11:25:57;;;;;;;1.35;0.35;;;11.80;97.90;;;;;;4977703;28;20046;-63
2021/12/02 11:28:24;;;;;;;0.60;0.20;;;11.50;98.80;;;;;;4978405;28;20046;-63
2021/12/02 11:30:50;;;;;;;0.95;0.20;;;11.30;98.90;;;;;;4975320;28;20051;-63
2021/12/02 11:33:18;;;;;;;0.50;0.13;;;11.60;99.00;;;;;;4959686;28;20046;-65
2021/12/02 11:35:45;;;;;;;1.00;0.30;;;11.70;99.10;;;;;;4960528;28;20059;-64
2021/12/02 11:38:19;;;;;;;0.95;0.35;;;11.60;99.00;;;;;;4976223;28;20046;-64
2021/12/02 11:40:47;;;;;;;0.63;0.25;;;11.70;99.10;;;;;;4977640;28;20050;-67
2021/12/02 11:43:15;;;;;;;1.15;0.20;;;11.30;99.00;;;;;;4982715;28;20081;-64
2021/12/02 11:45:48;;;;;;;0.65;0.10;;;11.60;97.80;;;;;;4990101;28;20034;-67
2021/12/02 11:48:38;;;;;;;0.82;0.30;;;11.60;97.80;;;;;;4976096;28;20096;-66
2021/12/02 11:51:05;;;;;;;0.55;0.30;;;11.70;99.00;;;;;;4936997;29;20059;-67
2021/12/02 11:53:31;;;;;;;1.25;0.30;;;11.70;99.20;;;;;;4942547;29;20512;-70
2021/12/02 11:55:58;;;;;;;1.08;0.38;;;;;;;;;;4955214;28;20133;-67
2021/12/02 11:58:24;;;;;;;0.85;0.32;;;11.80;97.80;;;;;;4957917;28;20110;-66
2021/12/02 12:00:50;;;;;;;2.10;0.30;;;12.00;99.00;;;;;;4959771;28;20126;-66
2021/12/02 12:03:16;;;;;;;2.47;0.40;;;;;;;;;;4971406;28;20039;-67
2021/12/02 12:05:46;;;;;;;2.88;0.40;;;11.80;97.80;;;;;;4955469;29;20062;-66
2021/12/02 12:08:31;;;;;;;4.28;0.98;;;11.70;98.80;;;;;;4940241;29;20437;-72
2021/12/02 12:10:57;;;;;;;0.45;0.20;;;11.60;98.80;;;;;;4909100;29;20055;-73
2021/12/02 12:13:24;;;;;;;0.88;0.30;;;;;;;;;;4940190;29;20051;-70
2021/12/02 12:16:00;;;;;;;0.85;0.20;;;11.50;97.60;;;;;;4957663;29;20064;-72
2021/12/02 12:18:25;;;;;;;0.65;0.20;;;11.60;98.70;;;;;;4955867;29;20031;-71
2021/12/02 12:20:52;;;;;;;0.38;0.15;;;11.70;97.70;;;;;;4957552;29;20589;-67
2021/12/02 12:23:28;;;;;;;0.40;0.30;;;11.60;97.00;;;;;;4956040;29;20501;-69
2021/12/02 12:26:18;;;;;;;1.20;0.45;;;11.60;97.10;;;;;;4955994;29;20058;-67
2021/12/02 12:31:33;;;;;;;1.10;0.28;;;;;;;;;;4955789;28;20085;-66
2021/12/02 12:34:00;;;;;;;0.85;0.10;;;;;;;;;;4955371;29;20059;-66
2021/12/02 12:36:42;;;;;;;0.55;0.20;;;11.60;97.00;;;;;;4939771;29;20075;-67
2021/12/02 12:39:21;;;;;;;1.30;0.25;;;11.70;98.60;;;;;;4939934;29;20047;-66
2021/12/02 12:42:10;;;;;;;0.90;0.20;;;11.40;96.80;;;;;;4939927;29;20524;-64
2021/12/02 12:44:49;;;;;;;1.92;0.38;;;11.70;96.80;;;;;;4957161;28;20057;-64
2021/12/02 12:47:15;;;;;;;0.55;0.20;;;11.60;98.60;;;;;;4956785;28;20062;-67
2021/12/02 12:49:42;;;;;;;0.77;0.20;;;11.50;97.00;;;;;;4981077;28;20050;-67
2021/12/02 12:52:18;;;;;;;1.75;0.28;;;11.90;96.70;;;;;;4961816;28;20065;-66
2021/12/02 12:55:13;;;;;;;1.38;0.22;;;11.70;97.20;;;;;;4962173;28;20116;-66
2021/12/02 12:58:10;;;;;;;4.35;0.30;;;11.70;96.60;;;;;;4988739;28;20444;-68
2021/12/02 13:00:46;;;;;;;9.75;0.95;;;11.70;97.20;;;;;;4978174;28;20034;-67
2021/12/02 13:03:40;;;;;;;1.42;0.38;;;11.70;98.30;;;;;;4994505;28;20558;-66
2021/12/02 13:06:11;;;;;;;2.25;0.38;;;11.60;97.00;;;;;;4976610;28;20048;-66
2021/12/02 13:08:54;;;;;;;1.45;0.20;;;11.40;98.30;;;;;;4978898;28;20065;-65
2021/12/02 13:11:22;;;;;;;0.30;0.13;;;11.70;97.10;;;;;;4995287;28;20046;-66
2021/12/02 13:13:48;;;;;;;1.17;0.28;;;;;;;;;;4994982;28;20069;-67
2021/12/02 13:16:18;;;;;;;2.88;0.47;;;11.50;98.40;;;;;;4993444;28;20050;-67
2021/12/02 13:18:49;;;;;;;0.75;0.20;;;11.60;97.20;;;;;;4977621;28;20054;-64
2021/12/02 13:21:34;;;;;;;1.65;0.30;;;11.60;97.30;;;;;;4961319;28;20109;-65
2021/12/02 13:24:03;;;;;;;2.72;0.40;;;11.90;98.40;;;;;;4975082;28;20082;-64
2021/12/02 13:26:29;;;;;;;0.47;0.20;;;11.60;98.40;;;;;;4976699;28;20411;-65
2021/12/02 13:29:02;;;;;;;1.02;0.20;;;11.50;97.30;;;;;;4977390;28;20403;-66
2021/12/02 13:31:28;;;;;;;1.25;0.22;;;;;;;;;;4961276;28;20073;-66
2021/12/02 13:34:05;;;;;;;1.20;0.20;;;11.80;97.00;;;;;;4960821;28;20046;-67